Time;durP1;ratioP1;P1;durP2;ratioP2;P2;SDS_P1;SDS_P2;PMS_P1;PMS_P2;Temp;Humidity;BMP_temperature;BMP_pressure;BME280_temperature;BME280_humidity;BME280_pressure;Samples;Min_cycle;Max_cycle;Signal;HPM_P1;HPM_P2
2022/05/10 00:02:03;;;;;;;0.70;0.57;;;6.80;83.30;;;;;;4985819;28;20073;-80
2022/05/10 00:04:30;;;;;;;1.50;1.20;;;6.80;83.60;;;;;;4987706;28;20060;-81
2022/05/10 00:06:57;;;;;;;2.38;0.60;;;6.70;83.70;;;;;;4980711;28;20199;-80
2022/05/10 00:09:29;;;;;;;1.83;1.05;;;6.70;82.90;;;;;;4973402;28;20057;-80
2022/05/10 00:11:57;;;;;;;0.95;0.80;;;6.70;83.00;;;;;;4998346;28;20349;-81
2022/05/10 00:14:28;;;;;;;1.73;0.65;;;6.70;83.00;;;;;;4981237;28;20053;-81
2022/05/10 00:16:56;;;;;;;1.38;0.52;;;6.70;83.50;;;;;;5001506;28;20046;-80
2022/05/10 00:19:27;;;;;;;1.23;0.90;;;6.70;83.70;;;;;;4985267;28;20081;-80
2022/05/10 00:21:55;;;;;;;3.65;1.20;;;6.70;82.50;;;;;;4986239;28;20050;-80
2022/05/10 00:24:22;;;;;;;1.25;0.93;;;6.70;83.20;;;;;;5003877;28;20409;-80
2022/05/10 00:26:52;;;;;;;0.93;0.70;;;6.70;83.00;;;;;;4986300;28;20049;-80
2022/05/10 00:29:19;;;;;;;1.40;0.90;;;6.70;82.50;;;;;;5001745;28;20049;-80
2022/05/10 00:31:46;;;;;;;1.00;1.00;;;6.70;80.90;;;;;;4985183;28;20070;-80
2022/05/10 00:34:16;;;;;;;3.55;0.68;;;6.70;80.30;;;;;;4970120;28;20060;-80
2022/05/10 00:36:44;;;;;;;1.27;0.80;;;6.70;79.60;;;;;;4986370;28;20037;-80
2022/05/10 00:39:12;;;;;;;1.13;1.02;;;6.80;80.30;;;;;;4985838;28;20149;-79
2022/05/10 00:41:56;;;;;;;1.63;0.57;;;6.80;79.70;;;;;;4984531;28;22954;-80
2022/05/10 00:44:32;;;;;;;1.00;0.70;;;6.80;78.90;;;;;;4965157;28;20126;-80
2022/05/10 00:47:30;;;;;;;1.30;0.90;;;6.80;78.00;;;;;;4994032;28;20108;-80
2022/05/10 00:50:15;;;;;;;1.85;0.70;;;6.80;76.10;;;;;;4983113;28;20054;-80
2022/05/10 00:52:53;;;;;;;0.60;0.60;;;6.80;76.20;;;;;;5000779;28;20339;-80
2022/05/10 00:55:28;;;;;;;1.25;0.60;;;6.80;75.70;;;;;;4980414;28;20136;-80
2022/05/10 00:58:08;;;;;;;0.55;0.50;;;6.80;75.00;;;;;;4984104;28;20046;-80
2022/05/10 01:00:36;;;;;;;0.75;0.70;;;6.90;72.90;;;;;;4997019;28;20081;-80
2022/05/10 01:03:15;;;;;;;1.13;0.82;;;7.00;72.70;;;;;;5002252;28;20136;-80
2022/05/10 01:05:57;;;;;;;1.45;1.02;;;7.00;72.90;;;;;;5001331;28;20562;-80
2022/05/10 01:08:27;;;;;;;2.50;0.88;;;7.00;72.80;;;;;;5000251;28;20141;-81
2022/05/10 01:11:19;;;;;;;1.25;0.85;;;7.00;73.90;;;;;;5003643;28;20050;-80
2022/05/10 01:14:04;;;;;;;1.45;0.65;;;7.10;74.80;;;;;;4991967;28;20041;-81
2022/05/10 01:16:31;;;;;;;0.82;0.63;;;7.00;75.70;;;;;;4999716;28;20046;-80
2022/05/10 01:18:58;;;;;;;2.47;0.80;;;7.00;76.60;;;;;;5002538;28;20046;-80
2022/05/10 01:21:28;;;;;;;0.80;0.75;;;7.00;77.60;;;;;;5003429;28;20103;-81
2022/05/10 01:24:03;;;;;;;1.77;0.77;;;7.00;77.50;;;;;;5002585;28;20697;-81
2022/05/10 01:27:07;;;;;;;1.10;0.70;;;7.00;78.30;;;;;;4992083;28;20053;-80
2022/05/10 01:29:43;;;;;;;1.00;0.40;;;6.90;78.40;;;;;;4994058;28;20108;-81
2022/05/10 01:35:07;;;;;;;0.80;0.40;;;6.90;79.20;;;;;;4997762;28;20538;-80
2022/05/10 01:37:41;;;;;;;0.40;0.40;;;6.90;79.90;;;;;;4983044;28;20054;-80
2022/05/10 01:40:18;;;;;;;0.75;0.73;;;6.90;80.50;;;;;;5002409;28;20125;-81
2022/05/10 01:42:49;;;;;;;1.15;1.05;;;6.90;82.10;;;;;;5002298;28;20050;-81
2022/05/10 01:45:45;;;;;;;0.30;0.30;;;6.80;82.80;;;;;;4984291;28;20073;-80
2022/05/10 01:48:17;;;;;;;1.30;1.02;;;6.80;83.50;;;;;;4983359;28;20105;-80
2022/05/10 01:50:54;;;;;;;1.52;0.80;;;6.80;84.20;;;;;;4985354;28;20803;-80
2022/05/10 01:53:34;;;;;;;1.17;0.85;;;6.80;84.40;;;;;;4982135;28;20058;-81
2022/05/10 01:56:09;;;;;;;0.65;0.45;;;6.70;84.80;;;;;;4981133;28;20647;-80
2022/05/10 01:58:39;;;;;;;2.50;0.55;;;6.70;85.20;;;;;;4998575;28;20070;-80
2022/05/10 02:01:11;;;;;;;1.63;0.75;;;6.70;86.00;;;;;;4981530;28;20061;-80
2022/05/10 02:03:44;;;;;;;1.13;0.52;;;6.60;86.80;;;;;;4978546;28;20620;-80
2022/05/10 02:06:51;;;;;;;0.93;0.50;;;6.60;87.30;;;;;;4995931;28;20109;-80
2022/05/10 02:09:21;;;;;;;3.85;1.40;;;6.60;88.20;;;;;;4958064;28;20049;-80
2022/05/10 02:12:10;;;;;;;0.60;0.57;;;6.60;88.90;;;;;;4975911;28;20211;-80
2022/05/10 02:14:51;;;;;;;2.53;0.70;;;6.50;89.90;;;;;;4962177;28;20708;-81
2022/05/10 02:17:34;;;;;;;0.75;0.60;;;6.60;90.60;;;;;;4982994;28;20065;-80
2022/05/10 02:20:15;;;;;;;1.40;0.57;;;6.50;90.70;;;;;;4989494;28;20053;-81
2022/05/10 02:23:07;;;;;;;1.40;0.40;;;6.50;91.10;;;;;;5001618;28;20045;-81
2022/05/10 02:25:47;;;;;;;1.52;0.73;;;6.40;91.60;;;;;;4989383;28;20441;-81
2022/05/10 02:28:29;;;;;;;2.10;0.45;;;6.30;92.10;;;;;;4982302;28;20148;-81
2022/05/10 02:31:00;;;;;;;2.08;1.90;;;6.30;92.60;;;;;;4983884;28;20546;-80
2022/05/10 02:33:29;;;;;;;0.65;0.52;;;6.20;93.00;;;;;;4994052;28;20054;-80
2022/05/10 02:35:58;;;;;;;1.80;0.70;;;6.20;93.20;;;;;;4998976;28;20090;-81
2022/05/10 02:38:36;;;;;;;0.60;0.60;;;6.20;93.60;;;;;;4995523;28;20050;-80
2022/05/10 02:41:09;;;;;;;2.72;1.23;;;6.10;94.00;;;;;;5001490;28;20076;-80
2022/05/10 02:43:58;;;;;;;1.98;1.50;;;6.10;94.40;;;;;;5001729;28;20057;-80
2022/05/10 02:46:25;;;;;;;1.90;0.75;;;6.00;95.00;;;;;;4976877;28;20053;-80
2022/05/10 02:48:52;;;;;;;1.90;0.60;;;6.00;95.40;;;;;;4966712;28;20070;-80
2022/05/10 02:51:20;;;;;;;2.65;0.68;;;6.00;96.00;;;;;;4997436;28;20050;-80
2022/05/10 02:53:47;;;;;;;0.25;0.25;;;5.90;96.40;;;;;;5000987;28;20371;-80
2022/05/10 02:56:20;;;;;;;1.00;0.38;;;5.90;96.90;;;;;;4982554;28;20073;-80
2022/05/10 02:58:53;;;;;;;0.77;0.60;;;5.90;97.40;;;;;;4982211;28;20467;-80
2022/05/10 03:01:46;;;;;;;1.10;0.88;;;5.90;97.60;;;;;;4981343;28;20046;-80
2022/05/10 03:04:20;;;;;;;0.45;0.45;;;5.90;98.00;;;;;;4983559;28;20533;-80
2022/05/10 03:06:47;;;;;;;0.80;0.80;;;5.90;98.60;;;;;;4982672;28;20057;-80
2022/05/10 03:09:14;;;;;;;2.25;0.50;;;5.90;98.80;;;;;;4999815;28;20116;-80
2022/05/10 03:11:42;;;;;;;1.25;0.50;;;5.80;99.00;;;;;;4998167;28;20104;-80
2022/05/10 03:14:10;;;;;;;1.05;0.90;;;5.80;99.50;;;;;;5004112;28;20436;-80
2022/05/10 03:16:38;;;;;;;3.58;0.82;;;5.90;99.70;;;;;;4999756;28;20053;-80
2022/05/10 03:19:05;;;;;;;1.42;0.60;;;5.80;99.90;;;;;;4977063;28;20558;-80
2022/05/10 03:21:37;;;;;;;0.82;0.60;;;5.90;99.90;;;;;;4999317;28;20049;-80
2022/05/10 03:24:04;;;;;;;2.30;0.75;;;5.90;99.90;;;;;;4999917;28;20046;-80
2022/05/10 03:26:32;;;;;;;2.25;0.70;;;5.90;99.90;;;;;;4962116;28;20116;-80
2022/05/10 03:28:59;;;;;;;0.98;0.63;;;5.80;99.90;;;;;;4981763;28;20060;-80
2022/05/10 03:31:27;;;;;;;2.60;0.88;;;5.80;99.90;;;;;;4998767;28;20119;-79
2022/05/10 03:36:41;;;;;;;1.25;0.60;;;5.90;99.90;;;;;;5002068;28;20076;-79
2022/05/10 03:39:09;;;;;;;1.15;0.70;;;5.90;99.90;;;;;;5001408;28;20402;-79
2022/05/10 03:41:36;;;;;;;2.10;0.82;;;5.90;99.90;;;;;;5003045;28;20042;-79
2022/05/10 03:44:03;;;;;;;1.45;0.70;;;6.00;99.90;;;;;;4998940;28;20826;-79
2022/05/10 03:46:30;;;;;;;1.88;0.93;;;6.00;99.90;;;;;;5000290;28;20057;-79
2022/05/10 03:48:58;;;;;;;0.55;0.45;;;6.10;99.90;;;;;;4981570;28;20069;-80
2022/05/10 03:51:25;;;;;;;1.95;0.50;;;6.10;99.90;;;;;;4997978;28;20046;-80
2022/05/10 03:53:52;;;;;;;2.70;0.40;;;6.10;99.90;;;;;;4999615;28;20080;-80
2022/05/10 03:56:19;;;;;;;0.98;0.52;;;6.20;99.90;;;;;;4981679;28;20077;-80
2022/05/10 03:58:45;;;;;;;2.38;0.73;;;6.20;99.90;;;;;;4978718;28;20256;-80
2022/05/10 04:01:12;;;;;;;1.35;0.70;;;6.20;99.90;;;;;;4999946;28;20157;-80
2022/05/10 04:03:39;;;;;;;2.78;0.63;;;6.30;99.90;;;;;;4993495;28;20533;-80
2022/05/10 04:06:06;;;;;;;1.67;0.77;;;6.30;99.90;;;;;;4981051;28;20053;-80
2022/05/10 04:08:33;;;;;;;3.17;0.85;;;6.30;99.90;;;;;;4996844;28;20093;-80
2022/05/10 04:11:06;;;;;;;0.98;0.40;;;6.30;99.90;;;;;;4985138;28;20099;-80
2022/05/10 04:13:37;;;;;;;1.00;0.60;;;6.40;99.90;;;;;;4979318;28;20081;-80
2022/05/10 04:16:05;;;;;;;1.75;0.82;;;6.50;99.90;;;;;;4994651;28;20050;-80
2022/05/10 04:18:32;;;;;;;0.90;0.70;;;6.50;99.90;;;;;;4998229;28;20479;-80
2022/05/10 04:20:59;;;;;;;2.13;0.60;;;6.50;99.90;;;;;;4999911;28;20093;-80
2022/05/10 04:23:27;;;;;;;0.93;0.85;;;6.60;99.90;;;;;;4997430;28;20113;-80
2022/05/10 04:26:11;;;;;;;2.47;1.05;;;6.70;99.90;;;;;;5000614;28;20046;-80
2022/05/10 04:28:38;;;;;;;;;;;6.70;99.90;;;;;;4977144;28;20530;-80
2022/05/10 04:31:05;;;;;;;1.60;1.02;;;6.80;99.90;;;;;;4981451;28;20592;-80
2022/05/10 04:33:32;;;;;;;4.47;0.93;;;6.80;99.90;;;;;;4997523;28;20526;-79
2022/05/10 04:36:00;;;;;;;1.17;0.60;;;6.80;99.90;;;;;;4999535;28;20069;-80
2022/05/10 04:38:28;;;;;;;2.25;0.77;;;6.90;99.90;;;;;;4981181;28;20092;-80
2022/05/10 04:43:41;;;;;;;1.77;1.13;;;7.10;99.90;;;;;;4979154;28;20058;-80
2022/05/10 04:46:09;;;;;;;1.30;1.20;;;7.10;99.90;;;;;;5000572;28;20045;-80
2022/05/10 04:48:36;;;;;;;5.28;1.38;;;7.20;99.90;;;;;;5002589;28;20058;-80
2022/05/10 04:51:04;;;;;;;1.35;0.95;;;7.20;99.90;;;;;;4978168;28;20444;-80
2022/05/10 04:53:31;;;;;;;2.25;0.60;;;7.20;99.90;;;;;;4990119;28;20054;-81
2022/05/10 04:55:58;;;;;;;3.08;0.90;;;7.30;99.90;;;;;;4988860;28;20053;-80
2022/05/10 04:58:25;;;;;;;1.42;0.68;;;7.30;99.90;;;;;;4990842;28;20053;-83
2022/05/10 05:00:56;;;;;;;2.95;0.82;;;7.30;99.90;;;;;;4995969;28;20150;-81
2022/05/10 05:03:23;;;;;;;4.00;0.93;;;7.30;99.90;;;;;;5000046;28;20050;-81
2022/05/10 05:05:50;;;;;;;1.45;1.10;;;7.40;99.90;;;;;;4983747;28;20123;-80
2022/05/10 05:08:16;;;;;;;1.48;0.88;;;7.40;99.90;;;;;;4985879;28;20232;-80
2022/05/10 05:10:43;;;;;;;1.63;1.10;;;7.50;99.90;;;;;;4977836;28;20141;-80
2022/05/10 05:13:10;;;;;;;1.90;0.98;;;7.50;99.90;;;;;;4988505;28;20927;-80
2022/05/10 05:15:37;;;;;;;1.17;1.08;;;7.60;99.90;;;;;;4990581;28;20645;-80
2022/05/10 05:18:07;;;;;;;3.08;1.10;;;7.70;99.90;;;;;;4988514;28;20121;-80
2022/05/10 05:20:39;;;;;;;2.45;0.98;;;7.80;99.90;;;;;;4984254;28;20074;-80
2022/05/10 05:23:08;;;;;;;1.60;1.00;;;7.90;99.90;;;;;;4990218;28;20150;-80
2022/05/10 05:25:41;;;;;;;2.13;0.93;;;8.00;99.90;;;;;;4973168;28;20137;-80
2022/05/10 05:28:09;;;;;;;1.52;1.05;;;8.10;99.90;;;;;;5006640;28;20048;-80
2022/05/10 05:30:37;;;;;;;2.70;0.60;;;8.20;99.90;;;;;;4985132;28;20062;-80
2022/05/10 05:33:05;;;;;;;1.95;1.10;;;8.30;99.90;;;;;;5002040;28;20070;-80
2022/05/10 05:35:32;;;;;;;1.67;0.77;;;8.40;99.40;;;;;;4999433;28;20943;-80
2022/05/10 05:38:00;;;;;;;2.05;1.00;;;8.50;99.50;;;;;;4998547;28;20045;-80
2022/05/10 05:40:27;;;;;;;3.25;1.27;;;8.50;99.20;;;;;;4997171;28;20058;-80
2022/05/10 05:42:54;;;;;;;1.48;1.23;;;8.70;99.20;;;;;;5000585;28;20514;-80
2022/05/10 05:45:24;;;;;;;5.90;1.55;;;8.80;99.00;;;;;;4982783;28;20060;-80
2022/05/10 05:47:55;;;;;;;5.45;1.23;;;9.00;98.80;;;;;;4984294;28;21053;-81
2022/05/10 05:50:25;;;;;;;3.42;1.10;;;9.10;98.60;;;;;;4978579;28;20050;-81
2022/05/10 05:52:56;;;;;;;2.58;1.13;;;9.20;98.40;;;;;;5001327;28;20052;-81
2022/05/10 05:55:24;;;;;;;4.47;1.33;;;9.30;98.10;;;;;;4973680;28;20411;-80
2022/05/10 05:57:51;;;;;;;3.33;1.15;;;9.50;98.70;;;;;;4997946;28;20049;-80
2022/05/10 06:00:21;;;;;;;3.38;1.77;;;9.70;98.50;;;;;;5000859;28;20879;-81
2022/05/10 06:02:50;;;;;;;2.10;1.38;;;9.90;98.70;;;;;;5001103;28;20136;-81
2022/05/10 06:05:20;;;;;;;1.83;1.55;;;10.10;98.80;;;;;;5002315;28;20061;-81
2022/05/10 06:07:46;;;;;;;3.20;1.67;;;10.20;98.90;;;;;;4982590;28;20058;-81
2022/05/10 06:10:14;;;;;;;3.08;1.30;;;10.40;98.60;;;;;;4990218;28;21008;-81
2022/05/10 06:12:41;;;;;;;4.10;1.88;;;10.60;98.30;;;;;;5004128;28;20112;-81
2022/05/10 06:15:16;;;;;;;4.78;1.70;;;10.70;98.70;;;;;;4997081;28;20108;-81
2022/05/10 06:17:45;;;;;;;2.72;1.48;;;10.90;98.20;;;;;;5002785;28;20052;-82
2022/05/10 06:20:16;;;;;;;2.30;1.88;;;11.10;98.70;;;;;;4982903;28;20145;-81
2022/05/10 06:22:44;;;;;;;;;;;11.20;97.80;;;;;;5002468;28;20054;-81
2022/05/10 06:25:17;;;;;;;3.50;1.83;;;11.40;98.60;;;;;;4984531;28;20033;-81
2022/05/10 06:27:50;;;;;;;5.40;1.90;;;11.50;97.90;;;;;;4999734;28;20372;-81
2022/05/10 06:30:19;;;;;;;4.75;1.75;;;11.70;98.30;;;;;;4984515;28;22302;-81
2022/05/10 06:32:46;;;;;;;11.32;3.67;;;11.80;97.90;;;;;;4984796;28;20042;-81
2022/05/10 06:35:14;;;;;;;2.80;1.85;;;11.90;97.50;;;;;;4984436;28;20069;-81
2022/05/10 06:40:32;;;;;;;1.73;1.58;;;12.20;97.60;;;;;;4998039;28;20053;-81
2022/05/10 06:43:01;;;;;;;1.88;1.65;;;12.30;97.00;;;;;;4990699;28;20045;-81
2022/05/10 06:45:31;;;;;;;3.35;1.85;;;12.30;96.80;;;;;;4999355;28;20049;-81
2022/05/10 06:47:59;;;;;;;2.17;1.10;;;12.40;97.20;;;;;;4973871;28;20738;-81
2022/05/10 06:50:26;;;;;;;7.93;3.13;;;12.40;96.90;;;;;;4986526;28;20404;-81
2022/05/10 06:52:57;;;;;;;2.63;1.83;;;12.60;96.70;;;;;;4992039;28;20050;-81
2022/05/10 06:55:31;;;;;;;6.10;1.70;;;12.70;96.70;;;;;;4989540;28;20053;-81
2022/05/10 06:58:01;;;;;;;4.38;1.70;;;12.80;96.80;;;;;;4997753;28;20963;-81
2022/05/10 07:00:33;;;;;;;1.80;1.70;;;12.90;96.40;;;;;;4983791;28;20157;-81
2022/05/10 07:03:12;;;;;;;3.58;2.42;;;13.10;96.60;;;;;;5000517;28;20574;-81
2022/05/10 07:05:42;;;;;;;6.80;2.78;;;13.20;96.50;;;;;;4993256;28;20084;-81
2022/05/10 07:08:09;;;;;;;4.00;2.20;;;13.30;95.70;;;;;;5000796;28;20061;-81
2022/05/10 07:10:36;;;;;;;4.25;1.80;;;13.30;95.90;;;;;;4994107;28;20108;-81
2022/05/10 07:13:03;;;;;;;6.65;2.53;;;13.40;95.80;;;;;;4979738;28;20070;-81
2022/05/10 07:15:30;;;;;;;2.47;2.13;;;13.50;95.40;;;;;;4994783;28;20108;-81
2022/05/10 07:17:57;;;;;;;2.10;1.95;;;13.40;94.80;;;;;;4982680;28;20042;-81
2022/05/10 07:20:24;;;;;;;6.22;1.95;;;13.40;95.20;;;;;;4982807;28;20157;-81
2022/05/10 07:22:51;;;;;;;3.72;2.28;;;13.50;95.20;;;;;;5000891;28;20053;-81
2022/05/10 07:25:23;;;;;;;4.53;2.42;;;13.60;95.40;;;;;;5000808;28;20049;-81
2022/05/10 07:27:49;;;;;;;4.70;2.38;;;13.60;95.20;;;;;;4998403;28;20072;-81
2022/05/10 07:30:17;;;;;;;3.90;2.08;;;13.60;95.40;;;;;;4999730;28;20141;-81
2022/05/10 07:32:44;;;;;;;7.35;2.38;;;13.60;95.30;;;;;;5000267;28;20164;-81
2022/05/10 07:35:12;;;;;;;3.88;2.08;;;13.70;95.80;;;;;;5000278;28;20175;-81
2022/05/10 07:37:39;;;;;;;5.38;1.90;;;13.80;95.60;;;;;;4998597;28;20096;-81
2022/05/10 07:40:09;;;;;;;8.02;2.85;;;13.90;95.60;;;;;;4998505;28;20377;-81
2022/05/10 07:42:37;;;;;;;2.80;2.10;;;13.90;95.00;;;;;;4996152;28;20124;-81
2022/05/10 07:45:06;;;;;;;3.00;2.15;;;14.00;95.40;;;;;;4982606;28;20164;-81
2022/05/10 07:47:34;;;;;;;8.10;3.10;;;14.20;95.20;;;;;;4961502;28;20054;-81
2022/05/10 07:50:01;;;;;;;8.13;2.92;;;14.30;94.90;;;;;;4999875;28;20196;-81
2022/05/10 07:52:27;;;;;;;8.27;2.88;;;14.40;94.50;;;;;;5000146;28;20410;-81
2022/05/10 07:54:54;;;;;;;4.07;2.80;;;14.50;94.70;;;;;;4998128;28;20061;-82
2022/05/10 07:57:21;;;;;;;5.63;2.30;;;14.40;94.20;;;;;;4991289;28;20495;-81
2022/05/10 07:59:48;;;;;;;3.05;2.75;;;14.50;94.70;;;;;;4981990;28;20056;-80
2022/05/10 08:02:16;;;;;;;3.75;2.38;;;14.50;95.10;;;;;;4982508;28;20451;-81
2022/05/10 08:04:43;;;;;;;3.67;2.58;;;14.60;94.40;;;;;;4987633;28;20443;-81
2022/05/10 08:07:10;;;;;;;3.85;2.28;;;14.60;94.20;;;;;;4979950;28;20046;-81
2022/05/10 08:09:37;;;;;;;5.50;2.30;;;14.70;94.20;;;;;;4989392;28;20041;-81
2022/05/10 08:12:05;;;;;;;3.17;1.70;;;14.70;93.90;;;;;;4999600;28;20054;-81
2022/05/10 08:14:31;;;;;;;4.55;3.28;;;14.60;93.90;;;;;;4998630;28;20145;-81
2022/05/10 08:16:58;;;;;;;5.50;2.97;;;14.60;94.80;;;;;;4996771;28;20545;-80
2022/05/10 08:19:26;;;;;;;4.50;2.42;;;14.60;94.30;;;;;;4977781;28;20054;-80
2022/05/10 08:21:56;;;;;;;5.00;3.30;;;14.80;94.70;;;;;;4989381;28;20120;-81
2022/05/10 08:24:23;;;;;;;4.88;3.42;;;14.70;94.30;;;;;;4983562;28;20435;-81
2022/05/10 08:26:50;;;;;;;6.53;2.53;;;14.90;94.40;;;;;;5001831;28;20053;-81
2022/05/10 08:29:17;;;;;;;5.97;2.45;;;14.90;94.80;;;;;;5005334;28;20066;-81
2022/05/10 08:31:45;;;;;;;6.57;3.55;;;14.90;94.40;;;;;;5012107;28;20471;-81
2022/05/10 08:34:30;;;;;;;6.95;2.97;;;14.90;94.90;;;;;;5003850;28;20505;-81
2022/05/10 08:36:58;;;;;;;3.45;2.20;;;15.00;94.20;;;;;;4986494;28;20080;-81
2022/05/10 08:39:25;;;;;;;3.55;2.58;;;15.00;93.70;;;;;;4996912;28;20050;-81
2022/05/10 08:42:12;;;;;;;6.40;2.90;;;14.90;93.70;;;;;;5004592;28;20175;-81
2022/05/10 08:44:40;;;;;;;7.85;2.83;;;14.80;94.10;;;;;;5004459;28;20049;-81
2022/05/10 08:47:10;;;;;;;4.35;2.72;;;14.90;94.50;;;;;;5005653;28;20053;-81
2022/05/10 08:50:05;;;;;;;5.07;2.40;;;15.00;94.00;;;;;;4984739;28;20066;-81
2022/05/10 08:52:52;;;;;;;6.07;2.45;;;15.20;94.30;;;;;;5005687;28;20588;-81
2022/05/10 08:55:28;;;;;;;5.55;2.55;;;15.20;93.30;;;;;;5005697;28;20054;-80
2022/05/10 08:58:13;;;;;;;8.98;4.22;;;15.30;93.60;;;;;;5006145;28;20140;-81
2022/05/10 09:00:47;;;;;;;4.03;2.47;;;15.30;94.00;;;;;;4999533;28;20049;-80
2022/05/10 09:03:26;;;;;;;7.18;3.33;;;15.50;93.40;;;;;;4998900;28;20057;-81
2022/05/10 09:05:59;;;;;;;9.20;3.70;;;15.60;93.60;;;;;;4994799;28;20050;-81
2022/05/10 09:08:51;;;;;;;4.53;3.47;;;15.70;92.70;;;;;;4975904;28;20083;-81
2022/05/10 09:11:21;;;;;;;5.45;2.80;;;15.80;92.70;;;;;;5003785;28;20058;-81
2022/05/10 09:13:48;;;;;;;4.32;2.45;;;15.80;92.60;;;;;;5002839;28;20042;-81
2022/05/10 09:16:15;;;;;;;3.83;2.30;;;15.90;92.20;;;;;;4983423;28;20050;-80
2022/05/10 09:18:46;;;;;;;4.65;2.47;;;15.80;92.20;;;;;;4981636;28;20042;-80
2022/05/10 09:21:24;;;;;;;5.60;2.97;;;15.90;92.50;;;;;;5002155;28;20053;-80
2022/05/10 09:24:25;;;;;;;8.57;2.85;;;15.80;91.90;;;;;;4997243;28;20053;-80
2022/05/10 09:26:56;;;;;;;2.60;2.22;;;15.70;91.50;;;;;;4992112;28;20054;-80
2022/05/10 09:29:30;;;;;;;4.75;2.78;;;16.00;91.90;;;;;;4977967;28;20916;-80
2022/05/10 09:35:05;;;;;;;8.38;3.28;;;16.20;90.80;;;;;;4999403;28;20042;-80
2022/05/10 09:37:37;;;;;;;6.00;2.97;;;16.20;90.50;;;;;;4995199;28;20105;-81
2022/05/10 09:40:32;;;;;;;4.50;3.17;;;16.20;91.20;;;;;;5001667;28;20049;-81
2022/05/10 09:43:26;;;;;;;5.00;2.95;;;16.40;90.70;;;;;;5005203;28;20375;-80
2022/05/10 09:46:05;;;;;;;8.88;3.67;;;16.30;90.00;;;;;;4996648;28;20080;-80
2022/05/10 09:48:33;;;;;;;3.95;3.10;;;16.20;90.70;;;;;;5000137;28;20050;-81
2022/05/10 09:51:24;;;;;;;7.22;3.00;;;16.30;90.20;;;;;;4984743;28;20042;-81
2022/05/10 09:53:52;;;;;;;9.60;2.95;;;16.40;88.80;;;;;;5004963;28;20045;-80
2022/05/10 09:56:56;;;;;;;10.43;3.75;;;16.40;89.80;;;;;;5002613;28;20057;-81
2022/05/10 09:59:24;;;;;;;5.35;2.42;;;16.60;90.00;;;;;;4957111;28;20042;-81
2022/05/10 10:01:55;;;;;;;3.88;2.55;;;16.60;87.40;;;;;;4989873;28;20049;-80
2022/05/10 10:04:33;;;;;;;;;;;16.60;88.70;;;;;;4985166;28;20057;-80
2022/05/10 10:07:09;;;;;;;3.72;2.50;;;16.50;89.20;;;;;;5000699;28;19976;-80
2022/05/10 10:09:42;;;;;;;4.28;3.35;;;16.60;89.30;;;;;;4999749;28;20062;-81
2022/05/10 10:12:16;;;;;;;4.22;3.03;;;16.70;86.70;;;;;;5000001;28;20069;-80
2022/05/10 10:14:48;;;;;;;4.82;2.00;;;16.80;86.90;;;;;;4986695;28;20042;-80
2022/05/10 10:17:17;;;;;;;5.45;2.75;;;16.90;87.30;;;;;;4993076;28;20065;-80
2022/05/10 10:19:50;;;;;;;6.75;2.78;;;17.10;85.90;;;;;;4995677;28;20049;-81
2022/05/10 10:22:20;;;;;;;7.40;2.60;;;17.00;86.30;;;;;;4997726;28;20050;-82
2022/05/10 10:25:01;;;;;;;7.65;2.22;;;17.00;85.30;;;;;;5003510;28;20046;-81
2022/05/10 10:27:36;;;;;;;3.55;2.95;;;17.30;87.90;;;;;;4999153;28;20499;-82
2022/05/10 10:30:03;;;;;;;3.53;2.33;;;17.60;83.30;;;;;;5000740;28;20565;-82
2022/05/10 10:32:39;;;;;;;4.25;2.55;;;17.60;83.80;;;;;;5001640;28;20046;-81
2022/05/10 10:35:23;;;;;;;6.72;2.10;;;17.80;82.60;;;;;;4964265;28;20511;-82
2022/05/10 10:37:56;;;;;;;9.15;3.60;;;17.90;83.60;;;;;;4999205;28;20049;-82
2022/05/10 10:40:24;;;;;;;20.85;2.70;;;17.90;81.80;;;;;;4998282;28;20124;-81
2022/05/10 10:43:03;;;;;;;3.90;2.25;;;17.80;82.20;;;;;;4999334;28;20073;-81
2022/05/10 10:45:40;;;;;;;6.57;2.03;;;17.80;82.70;;;;;;4992148;28;20467;-81
2022/05/10 10:48:47;;;;;;;4.68;2.80;;;17.90;82.20;;;;;;4998801;28;20046;-82
2022/05/10 10:51:15;;;;;;;4.05;2.15;;;17.80;81.50;;;;;;4976751;28;20474;-82
2022/05/10 10:53:44;;;;;;;15.00;3.28;;;17.80;81.30;;;;;;4999898;28;20798;-81
2022/05/10 10:56:55;;;;;;;5.40;2.30;;;17.60;80.80;;;;;;4996960;28;20116;-81
2022/05/10 11:00:08;;;;;;;9.77;2.35;;;17.60;81.10;;;;;;4978246;28;20038;-80
2022/05/10 11:02:58;;;;;;;8.63;2.08;;;17.50;80.80;;;;;;4982755;28;20046;-81
2022/05/10 11:06:00;;;;;;;4.53;2.00;;;17.70;81.40;;;;;;4995411;28;20526;-81
2022/05/10 11:08:34;;;;;;;5.63;2.95;;;17.60;80.40;;;;;;5002440;28;20514;-81
2022/05/10 11:11:24;;;;;;;5.68;3.47;;;17.50;80.80;;;;;;4977399;28;20463;-81
2022/05/10 11:14:00;;;;;;;5.03;2.57;;;17.70;81.20;;;;;;4975413;28;20587;-82
2022/05/10 11:17:10;;;;;;;2.67;1.75;;;17.80;81.20;;;;;;4996718;28;20057;-83
2022/05/10 11:19:42;;;;;;;4.13;2.17;;;18.10;81.60;;;;;;4996129;28;20065;-82
2022/05/10 11:22:19;;;;;;;8.57;2.60;;;18.30;82.60;;;;;;4975233;28;20133;-82
2022/05/10 11:24:55;;;;;;;2.15;1.80;;;18.60;80.70;;;;;;4979544;28;20046;-82
2022/05/10 11:27:32;;;;;;;7.18;2.28;;;18.90;80.80;;;;;;4976850;28;20087;-82
2022/05/10 11:30:17;;;;;;;8.48;2.55;;;18.90;79.00;;;;;;4989264;28;20397;-82
2022/05/10 11:32:59;;;;;;;3.17;2.20;;;19.10;79.20;;;;;;4976260;28;20057;-82
2022/05/10 11:35:44;;;;;;;3.88;2.38;;;18.90;77.40;;;;;;4975739;28;20138;-81
2022/05/10 11:38:33;;;;;;;5.25;2.50;;;18.60;76.40;;;;;;4980724;28;20049;-82
2022/05/10 11:41:25;;;;;;;6.13;2.45;;;18.40;77.10;;;;;;5000045;28;20053;-82
2022/05/10 11:44:12;;;;;;;4.45;2.85;;;18.40;77.30;;;;;;4994857;28;20037;-82
2022/05/10 11:47:10;;;;;;;7.65;2.33;;;18.50;77.30;;;;;;4999316;28;20050;-82
2022/05/10 11:50:01;;;;;;;6.13;2.50;;;18.80;77.70;;;;;;4963685;28;20450;-81
2022/05/10 11:52:57;;;;;;;5.50;2.22;;;18.80;75.50;;;;;;4978890;28;20052;-81
2022/05/10 11:55:46;;;;;;;6.05;2.03;;;18.60;76.80;;;;;;4976924;28;20502;-82
2022/05/10 11:58:15;;;;;;;2.53;1.63;;;18.70;77.80;;;;;;4998578;28;20050;-82
2022/05/10 12:01:04;;;;;;;3.95;2.03;;;18.50;76.10;;;;;;5004382;28;20486;-82
2022/05/10 12:03:43;;;;;;;15.70;2.60;;;18.40;76.20;;;;;;4997839;28;20056;-83
2022/05/10 12:06:22;;;;;;;8.57;2.15;;;18.40;75.60;;;;;;4985087;28;20423;-82
2022/05/10 12:08:58;;;;;;;4.38;2.03;;;18.40;76.60;;;;;;4984643;28;20122;-83
2022/05/10 12:11:28;;;;;;;3.30;1.75;;;18.60;78.10;;;;;;4976106;28;20070;-83
2022/05/10 12:22:18;;;;;;;10.35;2.15;;;18.20;76.60;;;;;;4995335;28;20064;-82
2022/05/10 12:24:47;;;;;;;5.07;2.63;;;18.30;77.30;;;;;;4999478;28;20050;-82
2022/05/10 12:27:15;;;;;;;9.88;2.67;;;18.60;77.50;;;;;;5005025;28;20477;-82
2022/05/10 12:29:42;;;;;;;2.00;1.75;;;18.40;76.30;;;;;;5004717;28;20196;-82
2022/05/10 12:32:17;;;;;;;8.82;2.78;;;18.50;76.90;;;;;;5001497;28;20084;-82
2022/05/10 12:34:58;;;;;;;3.92;1.80;;;18.30;76.40;;;;;;5002073;28;20509;-82
2022/05/10 12:37:26;;;;;;;3.63;1.98;;;18.20;76.60;;;;;;5002424;28;20058;-81
2022/05/10 12:40:01;;;;;;;4.47;1.90;;;18.30;76.90;;;;;;5003534;28;20123;-82
2022/05/10 12:43:11;;;;;;;4.05;2.05;;;18.40;75.50;;;;;;5002233;28;20113;-81
2022/05/10 12:46:00;;;;;;;4.45;1.92;;;18.40;75.90;;;;;;4996158;28;20050;-82
2022/05/10 12:49:08;;;;;;;8.52;2.78;;;18.40;77.90;;;;;;4983758;28;20614;-81
2022/05/10 12:52:20;;;;;;;6.07;2.33;;;18.80;75.80;;;;;;4981943;28;20053;-83
2022/05/10 12:54:54;;;;;;;7.13;2.08;;;18.40;75.90;;;;;;4940492;28;20129;-83
2022/05/10 12:57:46;;;;;;;2.88;2.28;;;18.40;75.90;;;;;;5000448;28;20148;-83
2022/05/10 13:00:24;;;;;;;4.72;2.75;;;18.30;77.00;;;;;;5000437;28;20053;-83
2022/05/10 13:03:09;;;;;;;8.57;3.03;;;18.20;76.20;;;;;;4996475;28;20093;-83
2022/05/10 13:06:01;;;;;;;5.85;2.67;;;18.00;76.00;;;;;;4994065;28;20176;-83
2022/05/10 13:08:43;;;;;;;8.80;2.95;;;18.00;76.50;;;;;;4996583;28;20058;-82
2022/05/10 13:11:44;;;;;;;6.22;2.10;;;17.80;76.70;;;;;;4993720;28;20155;-84
2022/05/10 13:14:13;;;;;;;6.53;2.15;;;18.00;76.40;;;;;;4999837;28;20046;-83
2022/05/10 13:16:46;;;;;;;4.55;2.10;;;18.10;75.50;;;;;;4985115;28;20046;-83
2022/05/10 13:19:13;;;;;;;6.53;2.00;;;18.10;75.20;;;;;;4984788;28;20741;-84
2022/05/10 13:21:42;;;;;;;4.05;2.10;;;17.90;75.30;;;;;;5001156;28;20054;-84
2022/05/10 13:24:14;;;;;;;5.22;2.60;;;17.70;76.10;;;;;;5001632;28;20503;-83
2022/05/10 13:26:57;;;;;;;6.38;2.53;;;17.70;76.10;;;;;;5001363;28;20041;-84
2022/05/10 13:29:42;;;;;;;9.40;2.40;;;17.50;75.30;;;;;;4994513;28;20050;-82
2022/05/10 13:32:11;;;;;;;3.70;1.92;;;17.50;75.60;;;;;;5000344;28;20090;-83
2022/05/10 13:34:50;;;;;;;4.32;2.30;;;17.60;76.60;;;;;;4990001;28;20157;-83
2022/05/10 13:37:30;;;;;;;7.32;2.58;;;17.50;76.90;;;;;;5002594;28;20081;-83
2022/05/10 13:40:08;;;;;;;6.78;2.72;;;17.50;76.40;;;;;;4966317;28;20098;-83
2022/05/10 13:42:45;;;;;;;4.63;2.20;;;17.60;78.80;;;;;;5001891;28;20113;-83
2022/05/10 13:45:18;;;;;;;8.75;2.42;;;17.50;77.20;;;;;;4977728;28;20050;-83
2022/05/10 13:47:48;;;;;;;15.43;3.53;;;17.60;76.40;;;;;;4987951;28;20367;-82
2022/05/10 13:50:22;;;;;;;5.28;2.10;;;17.50;76.00;;;;;;4998674;28;20081;-83
2022/05/10 13:52:56;;;;;;;4.15;2.00;;;17.70;76.10;;;;;;5000310;28;20718;-82